createdAt,value
2017-10-28T00:00:05.965Z,5.27
2017-10-28T00:02:54.553Z,5.60
2017-10-28T00:05:21.513Z,5.00
2017-10-28T00:07:48.324Z,4.33
2017-10-28T00:10:29.257Z,9.13
2017-10-28T00:12:57.194Z,5.70
2017-10-28T00:15:48.493Z,5.40
2017-10-28T00:18:35.493Z,5.83
2017-10-28T00:21:05.721Z,5.60
2017-10-28T00:23:32.741Z,5.67
2017-10-28T00:26:16.043Z,4.50
2017-10-28T00:28:47.672Z,5.03
2017-10-28T00:31:21.718Z,5.53
2017-10-28T00:34:01.870Z,5.30
2017-10-28T00:36:32.427Z,5.10
2017-10-28T00:38:58.377Z,5.90
2017-10-28T00:41:33.134Z,4.63
2017-10-28T00:44:01.858Z,5.60
2017-10-28T00:46:34.062Z,4.63
2017-10-28T00:49:10.465Z,5.07
2017-10-28T00:51:38.246Z,5.90
2017-10-28T00:54:10.837Z,5.10
2017-10-28T00:56:44.349Z,5.83
2017-10-28T00:59:10.331Z,5.37
2017-10-28T01:01:38.331Z,4.53
2017-10-28T01:04:11.562Z,4.57
2017-10-28T01:06:37.509Z,4.70
2017-10-28T01:09:03.650Z,3.77
2017-10-28T01:11:29.577Z,4.40
2017-10-28T01:13:55.601Z,5.63
2017-10-28T01:16:22.613Z,5.40
2017-10-28T01:19:03.977Z,4.37
2017-10-28T01:21:31.011Z,5.57
2017-10-28T01:24:05.599Z,4.90
2017-10-28T01:26:39.052Z,4.13
2017-10-28T01:29:08.809Z,4.83
2017-10-28T01:31:55.295Z,3.30
2017-10-28T01:34:35.212Z,4.47
2017-10-28T01:37:14.335Z,3.20
2017-10-28T01:39:41.375Z,4.17
2017-10-28T01:42:08.086Z,4.40
2017-10-28T01:44:34.131Z,4.70
2017-10-28T01:47:22.749Z,4.40
2017-10-28T01:49:52.491Z,4.30
2017-10-28T01:52:32.078Z,3.93
2017-10-28T01:57:57.274Z,3.70
2017-10-28T02:00:29.022Z,5.10
2017-10-28T02:03:00.430Z,5.30
2017-10-28T02:05:32.939Z,4.03
2017-10-28T02:08:06.441Z,3.63
2017-10-28T02:10:40.361Z,4.27
2017-10-28T02:16:00.498Z,4.80
2017-10-28T02:18:51.772Z,3.63
2017-10-28T02:21:25.532Z,5.70
2017-10-28T02:24:02.046Z,4.00
2017-10-28T02:26:38.611Z,4.83
2017-10-28T02:29:05.371Z,4.10
2017-10-28T02:31:35.602Z,4.60
2017-10-28T02:34:01.666Z,4.63
2017-10-28T02:36:27.657Z,4.13
2017-10-28T02:39:02.282Z,4.30
2017-10-28T02:41:32.321Z,4.20
2017-10-28T02:44:15.798Z,3.40
2017-10-28T02:46:42.638Z,4.20
2017-10-28T02:49:14.837Z,3.97
2017-10-28T02:51:46.227Z,3.87
2017-10-28T02:54:16.190Z,3.63
2017-10-28T02:56:54.614Z,4.37
2017-10-28T02:59:35.133Z,2.87
2017-10-28T03:02:14.881Z,3.77
2017-10-28T03:04:48.320Z,4.13
2017-10-28T03:07:22.963Z,3.77
2017-10-28T03:09:50.997Z,3.60
2017-10-28T03:12:17.030Z,4.20
2017-10-28T03:14:50.349Z,4.33
2017-10-28T03:17:24.893Z,4.53
2017-10-28T03:19:54.582Z,5.03
2017-10-28T03:22:28.574Z,3.50
2017-10-28T03:25:00.407Z,4.30
2017-10-28T03:27:39.474Z,4.20
2017-10-28T03:30:16.465Z,4.60
2017-10-28T03:32:42.389Z,4.67
2017-10-28T03:35:14.650Z,6.00
2017-10-28T03:37:40.664Z,4.93
2017-10-28T03:40:08.608Z,5.77
2017-10-28T03:42:38.240Z,5.93
2017-10-28T03:45:06.234Z,4.30
2017-10-28T03:47:35.030Z,4.40
2017-10-28T03:50:22.962Z,4.30
2017-10-28T03:53:02.826Z,4.20
2017-10-28T03:55:34.985Z,5.00
2017-10-28T03:58:11.234Z,4.37
2017-10-28T04:00:52.358Z,4.40
2017-10-28T04:03:18.312Z,4.90
2017-10-28T04:05:47.956Z,4.40
2017-10-28T04:08:18.449Z,3.93
2017-10-28T04:10:50.580Z,4.70
2017-10-28T04:13:28.054Z,4.30
2017-10-28T04:15:58.881Z,4.87
2017-10-28T04:18:36.263Z,4.10
2017-10-28T04:21:09.686Z,4.97
2017-10-28T04:23:39.374Z,2.90
2017-10-28T04:29:07.354Z,4.80
2017-10-28T04:31:34.122Z,3.90
2017-10-28T04:34:03.542Z,4.40
2017-10-28T04:36:37.939Z,3.93
2017-10-28T04:42:03.477Z,3.37
2017-10-28T04:44:42.030Z,4.53
2017-10-28T04:47:10.074Z,3.57
2017-10-28T04:49:43.158Z,2.97
2017-10-28T04:52:11.195Z,4.07
2017-10-28T04:54:39.174Z,3.70
2017-10-28T04:57:09.612Z,4.40
2017-10-28T04:59:51.135Z,4.23
2017-10-28T05:02:35.782Z,4.07
2017-10-28T05:05:09.602Z,3.63
2017-10-28T05:07:35.590Z,5.07
2017-10-28T05:10:07.730Z,6.50
2017-10-28T05:12:37.429Z,5.07
2017-10-28T05:15:04.402Z,5.00
2017-10-28T05:17:39.089Z,4.20
2017-10-28T05:20:11.633Z,4.80
2017-10-28T05:22:38.358Z,3.57
2017-10-28T05:25:25.953Z,4.00
2017-10-28T05:30:46.306Z,4.30
2017-10-28T05:33:20.938Z,4.97
2017-10-28T05:35:52.599Z,4.10
2017-10-28T05:38:18.607Z,4.90
2017-10-28T05:40:45.449Z,3.33
2017-10-28T05:43:15.600Z,6.80
2017-10-28T05:48:38.146Z,4.70
2017-10-28T05:51:15.635Z,4.87
2017-10-28T05:53:55.194Z,4.33
2017-10-28T05:56:26.091Z,5.40
2017-10-28T05:59:00.900Z,4.93
2017-10-28T06:01:40.493Z,4.43
2017-10-28T06:04:07.521Z,5.90
2017-10-28T06:06:47.901Z,5.30
2017-10-28T06:09:13.899Z,5.67
2017-10-28T06:11:58.069Z,5.67
2017-10-28T06:14:32.173Z,8.20
2017-10-28T06:17:04.254Z,6.00
2017-10-28T06:19:30.246Z,6.27
2017-10-28T06:22:03.594Z,6.00
2017-10-28T06:24:35.654Z,6.40
2017-10-28T06:27:05.165Z,5.70
2017-10-28T06:29:52.307Z,6.80
2017-10-28T06:32:22.146Z,5.47
2017-10-28T06:34:59.732Z,5.20
2017-10-28T06:37:33.178Z,5.87
2017-10-28T06:40:06.461Z,7.90
2017-10-28T06:42:32.457Z,5.77
2017-10-28T06:45:09.415Z,9.00
2017-10-28T06:47:37.106Z,5.93
2017-10-28T06:50:04.141Z,6.30
2017-10-28T06:52:36.351Z,5.40
2017-10-28T06:55:14.774Z,5.63
2017-10-28T06:57:50.254Z,5.27
2017-10-28T07:00:16.241Z,4.80
2017-10-28T07:02:56.105Z,5.27
2017-10-28T07:05:32.653Z,4.60
2017-10-28T07:08:06.978Z,4.60
2017-10-28T07:10:32.988Z,6.17
2017-10-28T07:13:10.066Z,5.40
2017-10-28T07:15:38.461Z,5.30
2017-10-28T07:18:21.693Z,4.97
2017-10-28T07:20:53.464Z,5.70
2017-10-28T07:23:34.038Z,4.00
2017-10-28T07:26:07.530Z,3.80
2017-10-28T07:28:37.435Z,5.60
2017-10-28T07:31:03.445Z,4.67
2017-10-28T07:33:38.189Z,4.17
2017-10-28T07:36:04.136Z,4.40
2017-10-28T07:38:33.650Z,4.83
2017-10-28T07:41:06.803Z,4.27
2017-10-28T07:43:34.569Z,4.00
2017-10-28T07:46:01.386Z,4.30
2017-10-28T07:48:34.382Z,4.27
2017-10-28T07:51:00.448Z,3.83
2017-10-28T07:53:26.546Z,3.70
2017-10-28T07:55:52.505Z,3.00
2017-10-28T07:58:25.813Z,4.03
2017-10-28T08:01:09.085Z,4.40
2017-10-28T08:03:41.023Z,2.90
2017-10-28T08:06:14.206Z,3.20
2017-10-28T08:08:44.824Z,3.20
2017-10-28T08:11:21.475Z,3.57
2017-10-28T08:13:48.180Z,3.67
2017-10-28T08:16:33.117Z,4.47
2017-10-28T08:18:59.129Z,3.93
2017-10-28T08:21:40.512Z,3.87
2017-10-28T08:27:03.123Z,4.67
2017-10-28T08:29:32.963Z,3.40
2017-10-28T08:31:59.719Z,5.20
2017-10-28T08:34:36.883Z,3.77
2017-10-28T08:37:20.973Z,4.33
2017-10-28T08:39:57.219Z,4.90
2017-10-28T08:42:25.375Z,4.40
2017-10-28T08:45:02.349Z,4.20
2017-10-28T08:47:49.234Z,3.23
2017-10-28T08:50:21.315Z,4.60
2017-10-28T08:52:55.871Z,3.07
2017-10-28T08:55:22.894Z,4.10
2017-10-28T08:57:53.355Z,4.07
2017-10-28T09:00:39.803Z,5.13
2017-10-28T09:03:05.883Z,4.27
2017-10-28T09:05:44.894Z,4.27
2017-10-28T09:08:11.652Z,4.30
2017-10-28T09:10:40.725Z,3.53
2017-10-28T09:13:27.313Z,5.53
2017-10-28T09:15:57.885Z,3.90
2017-10-28T09:18:27.306Z,5.40
2017-10-28T09:23:46.227Z,4.27
2017-10-28T09:26:12.319Z,6.20
2017-10-28T09:28:38.395Z,5.87
2017-10-28T09:31:26.914Z,4.37
2017-10-28T09:33:52.991Z,4.60
2017-10-28T09:36:19.003Z,4.23
2017-10-28T09:38:49.118Z,4.83
2017-10-28T09:41:25.607Z,4.67
2017-10-28T09:44:03.065Z,5.50
2017-10-28T09:46:29.138Z,4.87
2017-10-28T09:48:58.801Z,4.40
2017-10-28T09:51:31.143Z,4.63
2017-10-28T09:54:04.613Z,4.80
2017-10-28T09:56:38.746Z,4.70
2017-10-28T09:59:06.792Z,4.67
2017-10-28T10:01:46.896Z,4.63
2017-10-28T10:04:23.423Z,5.10
2017-10-28T10:06:49.445Z,4.33
2017-10-28T10:09:23.131Z,4.93
2017-10-28T10:11:49.073Z,4.90
2017-10-28T10:14:16.837Z,5.00
2017-10-28T10:25:23.018Z,7.13
2017-10-28T10:27:57.741Z,5.47
2017-10-28T10:30:24.450Z,6.50
2017-10-28T10:32:50.506Z,6.80
2017-10-28T10:35:17.489Z,6.40
2017-10-28T10:37:44.210Z,5.87
2017-10-28T10:40:11.161Z,5.47
2017-10-28T10:42:39.134Z,4.93
2017-10-28T10:45:22.418Z,6.70
2017-10-28T10:47:54.960Z,8.23
2017-10-28T10:50:35.030Z,7.60
2017-10-28T10:53:02.098Z,7.37
2017-10-28T10:55:29.113Z,5.10
2017-10-28T10:58:19.266Z,6.80
2017-10-28T11:00:57.247Z,6.03
2017-10-28T11:03:30.663Z,5.87
2017-10-28T11:05:56.693Z,5.50
2017-10-28T11:08:41.195Z,7.17
2017-10-28T11:11:11.821Z,6.03
2017-10-28T11:13:46.212Z,5.50
2017-10-28T11:16:33.698Z,5.37
2017-10-28T11:18:59.807Z,6.63
2017-10-28T11:21:33.578Z,6.00
2017-10-28T11:24:12.000Z,5.63
2017-10-28T11:26:41.477Z,5.77
2017-10-28T11:29:10.998Z,6.60
2017-10-28T11:31:58.181Z,5.40
2017-10-28T11:34:26.202Z,4.83
2017-10-28T11:37:04.251Z,5.80
2017-10-28T11:39:30.950Z,5.93
2017-10-28T11:41:58.922Z,5.80
2017-10-28T11:44:46.617Z,6.20
2017-10-28T11:47:13.567Z,6.30
2017-10-28T11:49:45.542Z,6.00
2017-10-28T11:52:15.335Z,5.60
2017-10-28T11:54:41.266Z,6.00
2017-10-28T11:57:07.311Z,6.57
2017-10-28T11:59:37.430Z,6.27
2017-10-28T12:02:23.934Z,6.87
2017-10-28T12:05:01.042Z,6.07
2017-10-28T12:07:29.011Z,5.43
2017-10-28T12:10:01.780Z,5.60
2017-10-28T12:15:21.277Z,5.70
2017-10-28T12:18:00.943Z,7.27
2017-10-28T12:20:37.378Z,7.33
2017-10-28T12:23:18.617Z,6.67
2017-10-28T12:25:54.710Z,5.23
2017-10-28T12:28:21.408Z,6.40
2017-10-28T12:30:55.152Z,5.70
2017-10-28T12:33:23.867Z,5.60
2017-10-28T12:35:52.385Z,6.97
2017-10-28T12:38:21.258Z,7.17
2017-10-28T12:40:47.458Z,6.77
2017-10-28T12:43:22.100Z,5.80
2017-10-28T12:46:09.670Z,6.43
2017-10-28T12:48:39.295Z,5.87
2017-10-28T12:51:05.398Z,6.03
2017-10-28T12:53:46.882Z,5.57
2017-10-28T12:56:16.250Z,6.00
2017-10-28T12:58:58.802Z,6.20
2017-10-28T13:01:42.513Z,7.30
2017-10-28T13:04:14.027Z,5.93
2017-10-28T13:06:44.046Z,5.60
2017-10-28T13:09:22.958Z,6.97
2017-10-28T13:11:48.931Z,5.80
2017-10-28T13:14:15.961Z,6.50
2017-10-28T13:16:42.617Z,7.43
2017-10-28T13:19:12.219Z,6.50
2017-10-28T13:21:38.168Z,5.90
2017-10-28T13:24:04.150Z,5.50
2017-10-28T13:26:30.171Z,6.10
2017-10-28T13:28:58.362Z,6.37
2017-10-28T13:31:26.366Z,6.80
2017-10-28T13:33:52.353Z,5.63
2017-10-28T13:36:19.342Z,6.90
2017-10-28T13:38:49.940Z,6.40
2017-10-28T13:41:15.968Z,5.17
2017-10-28T13:43:42.062Z,6.60
2017-10-28T13:46:13.514Z,5.20
2017-10-28T13:48:49.957Z,5.53
2017-10-28T13:51:24.371Z,4.60
2017-10-28T13:53:55.932Z,5.07
2017-10-28T13:59:23.102Z,3.87
2017-10-28T14:02:13.622Z,4.70
2017-10-28T14:04:59.296Z,4.13
2017-10-28T14:07:30.803Z,4.33
2017-10-28T14:09:57.514Z,4.33
2017-10-28T14:15:23.542Z,4.80
2017-10-28T14:17:49.498Z,5.00
2017-10-28T14:20:19.378Z,3.90
2017-10-28T14:22:59.838Z,4.83
2017-10-28T14:25:33.293Z,3.37
2017-10-28T14:28:03.866Z,3.93
2017-10-28T14:30:33.622Z,3.40
2017-10-28T14:33:17.709Z,3.10
2017-10-28T14:35:43.726Z,4.47
2017-10-28T14:38:10.743Z,3.40
2017-10-28T14:40:36.666Z,4.63
2017-10-28T14:43:04.647Z,4.33
2017-10-28T14:45:38.061Z,3.80
2017-10-28T14:48:11.680Z,3.80
2017-10-28T14:50:41.415Z,4.40
2017-10-28T14:53:25.038Z,4.80
2017-10-28T14:55:58.623Z,3.80
2017-10-28T14:58:30.007Z,4.43
2017-10-28T15:01:16.406Z,3.57
2017-10-28T15:03:52.920Z,3.00
2017-10-28T15:06:21.703Z,3.80
2017-10-28T15:08:50.390Z,3.37
2017-10-28T15:11:17.071Z,3.73
2017-10-28T15:13:50.567Z,5.30
2017-10-28T15:16:34.158Z,3.00
2017-10-28T15:19:00.924Z,3.70
2017-10-28T15:21:28.682Z,3.50
2017-10-28T15:23:55.454Z,3.53
2017-10-28T15:26:22.470Z,3.33
2017-10-28T15:28:48.416Z,2.43
2017-10-28T15:31:21.693Z,3.20
2017-10-28T15:33:47.626Z,3.30
2017-10-28T15:36:13.654Z,2.63
2017-10-28T15:38:40.317Z,3.20
2017-10-28T15:41:07.010Z,5.13
2017-10-28T15:43:32.954Z,4.40
2017-10-28T15:45:58.992Z,2.60
2017-10-28T15:48:45.991Z,3.27
2017-10-28T15:51:12.062Z,3.13
2017-10-28T15:53:38.078Z,2.50
2017-10-28T15:56:07.107Z,4.10
2017-10-28T15:58:36.344Z,2.77
2017-10-28T16:01:02.298Z,3.13
2017-10-28T16:03:34.968Z,2.50
2017-10-28T16:06:02.907Z,3.30
2017-10-28T16:08:35.967Z,2.90
2017-10-28T16:11:08.670Z,3.53
2017-10-28T16:13:42.129Z,3.53
2017-10-28T16:16:14.687Z,3.70
2017-10-28T16:18:40.733Z,2.80
2017-10-28T16:21:07.466Z,3.17
2017-10-28T16:29:18.158Z,3.53
2017-10-28T16:31:50.355Z,4.20
2017-10-28T16:34:26.817Z,3.87
2017-10-28T16:39:46.885Z,3.97
2017-10-28T16:42:12.870Z,4.03
2017-10-28T16:44:38.817Z,3.37
2017-10-28T16:47:05.786Z,3.50
2017-10-28T16:49:31.812Z,3.83
2017-10-28T16:51:59.902Z,4.03
2017-10-28T16:54:26.881Z,3.50
2017-10-28T16:57:03.909Z,3.27
2017-10-28T16:59:40.366Z,4.40
2017-10-28T17:02:17.089Z,4.03
2017-10-28T17:04:47.545Z,3.10
2017-10-28T17:07:17.930Z,4.10
2017-10-28T17:09:43.957Z,4.57
2017-10-28T17:12:10.905Z,4.63
2017-10-28T17:14:36.938Z,2.97
2017-10-28T17:17:03.894Z,3.60
2017-10-28T17:19:37.002Z,3.60
2017-10-28T17:22:03.726Z,3.10
2017-10-28T17:24:29.746Z,3.47
2017-10-28T17:26:55.830Z,3.73
2017-10-28T17:29:21.782Z,3.73
2017-10-28T17:31:47.694Z,5.80
2017-10-28T17:34:14.724Z,4.43
2017-10-28T17:36:40.662Z,4.83
2017-10-28T17:39:09.732Z,4.87
2017-10-28T17:41:35.750Z,4.23
2017-10-28T17:44:01.808Z,4.70
2017-10-28T17:46:32.938Z,2.87
2017-10-28T17:48:59.627Z,3.30
2017-10-28T17:51:25.570Z,3.10
2017-10-28T17:54:05.186Z,3.40
2017-10-28T17:56:31.150Z,3.30
2017-10-28T17:58:57.136Z,3.23
2017-10-28T18:01:23.062Z,3.40
2017-10-28T18:03:49.114Z,3.53
2017-10-28T18:06:18.267Z,3.97
2017-10-28T18:08:50.790Z,2.90
2017-10-28T18:11:16.733Z,3.93
2017-10-28T18:13:43.446Z,5.30
2017-10-28T18:16:27.179Z,3.47
2017-10-28T18:18:57.694Z,4.13
2017-10-28T18:21:23.726Z,3.70
2017-10-28T18:23:50.391Z,4.70
2017-10-28T18:26:25.306Z,3.60
2017-10-28T18:28:59.758Z,5.30
2017-10-28T18:31:25.770Z,3.93
2017-10-28T18:33:52.814Z,4.30
2017-10-28T18:36:22.196Z,3.73
2017-10-28T18:38:48.966Z,4.73
2017-10-28T18:41:16.046Z,3.73
2017-10-28T18:43:52.292Z,4.13
2017-10-28T18:46:18.326Z,3.73
2017-10-28T18:48:44.274Z,3.80
2017-10-28T18:51:15.425Z,3.80
2017-10-28T18:53:44.854Z,3.17
2017-10-28T18:56:10.986Z,3.70
2017-10-28T18:58:37.039Z,4.07
2017-10-28T19:01:02.971Z,2.93
2017-10-28T19:03:34.319Z,3.83
2017-10-28T19:06:14.749Z,4.17
2017-10-28T19:08:40.806Z,4.10
2017-10-28T19:11:22.058Z,4.13
2017-10-28T19:13:48.094Z,4.13
2017-10-28T19:16:24.804Z,3.70
2017-10-28T19:18:50.831Z,4.13
2017-10-28T19:21:20.658Z,4.70
2017-10-28T19:23:54.121Z,4.33
2017-10-28T19:26:28.480Z,3.93
2017-10-28T19:29:09.146Z,4.10
2017-10-28T19:31:36.158Z,4.70
2017-10-28T19:34:15.414Z,5.07
2017-10-28T19:36:53.077Z,4.67
2017-10-28T19:39:37.547Z,4.27
2017-10-28T19:42:05.600Z,4.33
2017-10-28T19:44:32.266Z,4.57
2017-10-28T19:47:11.079Z,4.87
2017-10-28T19:49:50.883Z,4.13
2017-10-28T19:52:25.869Z,5.60
2017-10-28T19:54:52.091Z,4.90
2017-10-28T19:57:35.886Z,4.03
2017-10-28T20:00:05.421Z,4.70
2017-10-28T20:02:36.518Z,4.30
2017-10-28T20:05:06.184Z,5.20
2017-10-28T20:07:39.590Z,4.93
2017-10-28T20:10:31.151Z,5.20
2017-10-28T20:12:57.148Z,4.43
2017-10-28T20:15:23.453Z,4.83
2017-10-28T20:17:53.689Z,4.80
2017-10-28T20:20:20.418Z,7.70
2017-10-28T20:22:52.846Z,4.33
2017-10-28T20:25:18.832Z,4.90
2017-10-28T20:27:47.718Z,5.00
2017-10-28T20:30:14.053Z,4.70
2017-10-28T20:32:43.787Z,4.80
2017-10-28T20:38:03.550Z,4.70
2017-10-28T20:40:29.622Z,5.03
2017-10-28T20:43:13.937Z,5.80
2017-10-28T20:45:40.898Z,4.43
2017-10-28T20:48:11.018Z,5.30
2017-10-28T20:50:42.061Z,5.00
2017-10-28T20:53:29.171Z,4.10
2017-10-28T20:55:58.785Z,5.20
2017-10-28T20:58:24.822Z,5.00
2017-10-28T21:00:59.552Z,5.73
2017-10-28T21:03:29.859Z,7.03
2017-10-28T21:05:55.897Z,6.87
2017-10-28T21:08:22.655Z,5.90
2017-10-28T21:10:51.430Z,5.77
2017-10-28T21:13:18.109Z,4.93
2017-10-28T21:15:45.172Z,4.90
2017-10-28T21:18:13.705Z,5.00
2017-10-28T21:20:40.397Z,4.93
2017-10-28T21:26:07.476Z,3.20
2017-10-28T21:28:45.177Z,4.10
2017-10-28T21:31:19.507Z,4.40
2017-10-28T21:33:46.155Z,4.50
2017-10-28T21:36:12.090Z,4.30
2017-10-28T21:38:38.443Z,4.40
2017-10-28T21:41:04.502Z,4.53
2017-10-28T21:43:31.510Z,3.60
2017-10-28T21:45:57.542Z,5.13
2017-10-28T21:48:23.574Z,3.47
2017-10-28T21:50:50.531Z,3.20
2017-10-28T21:53:25.185Z,3.57
2017-10-28T21:58:58.002Z,3.93
2017-10-28T22:01:29.501Z,2.90
2017-10-28T22:03:58.293Z,2.90
2017-10-28T22:06:35.447Z,2.50
2017-10-28T22:09:01.542Z,3.73
2017-10-28T22:11:27.466Z,3.60
2017-10-28T22:13:55.535Z,3.17
2017-10-28T22:16:21.628Z,4.73
2017-10-28T22:18:59.255Z,3.13
2017-10-28T22:21:25.970Z,3.50
2017-10-28T22:23:55.265Z,2.87
2017-10-28T22:26:24.578Z,3.10
2017-10-28T22:28:50.667Z,2.30
2017-10-28T22:31:17.690Z,2.80
2017-10-28T22:33:47.894Z,3.97
2017-10-28T22:36:20.317Z,2.80
2017-10-28T22:38:51.829Z,2.63
2017-10-28T22:41:18.054Z,3.33
2017-10-28T22:43:48.201Z,4.10
2017-10-28T22:46:14.954Z,2.30
2017-10-28T22:48:47.016Z,3.00
2017-10-28T22:51:14.813Z,3.50
2017-10-28T22:53:51.336Z,2.70
2017-10-28T22:56:18.126Z,2.50
2017-10-28T22:58:51.095Z,2.60
2017-10-28T23:01:23.494Z,2.27
2017-10-28T23:03:56.109Z,3.00
2017-10-28T23:06:22.178Z,2.20
2017-10-28T23:08:58.891Z,3.30
2017-10-28T23:11:24.866Z,2.43
2017-10-28T23:13:51.646Z,2.00
2017-10-28T23:16:17.654Z,2.90
2017-10-28T23:18:55.070Z,1.90
2017-10-28T23:21:31.555Z,1.80
2017-10-28T23:24:04.913Z,2.17
2017-10-28T23:26:38.374Z,1.93
2017-10-28T23:29:06.422Z,2.30
2017-10-28T23:31:33.406Z,1.43
2017-10-28T23:34:01.395Z,1.50
2017-10-28T23:36:28.126Z,1.87
2017-10-28T23:38:58.391Z,1.90
2017-10-28T23:41:24.566Z,1.50
2017-10-28T23:43:50.511Z,1.67
2017-10-28T23:46:21.508Z,2.00
2017-10-28T23:48:47.538Z,2.20
2017-10-28T23:51:27.397Z,2.57
2017-10-28T23:53:57.353Z,1.20
2017-10-28T23:56:28.942Z,1.57
2017-10-28T23:58:58.346Z,2.17
